Time;durP1;ratioP1;P1;durP2;ratioP2;P2;SDS_P1;SDS_P2;PMS_P1;PMS_P2;Temp;Humidity;BMP_temperature;BMP_pressure;BME280_temperature;BME280_humidity;BME280_pressure;Samples;Min_cycle;Max_cycle;Signal;HPM_P1;HPM_P2
2022/05/26 00:01:45;;;;;;;0.88;0.50;;;;;;;;;;7386478;19;20014;-77
2022/05/26 00:04:10;;;;;;;1.13;0.82;;;;;;;;;;7385163;19;20011;-77
2022/05/26 00:06:36;;;;;;;0.95;0.70;;;;;;;;;;7385020;19;20007;-77
2022/05/26 00:09:01;;;;;;;2.65;0.60;;;;;;;;;;7388504;19;20015;-77
2022/05/26 00:11:33;;;;;;;0.95;0.82;;;;;;;;;;7388118;19;20369;-77
2022/05/26 00:14:03;;;;;;;0.80;0.60;;;;;;;;;;7384831;19;20010;-77
2022/05/26 00:16:28;;;;;;;0.50;0.50;;;;;;;;;;7385680;19;20030;-77
2022/05/26 00:18:53;;;;;;;2.35;0.80;;;;;;;;;;7387233;19;20006;-77
2022/05/26 00:21:19;;;;;;;1.33;0.90;;;;;;;;;;7386795;19;20470;-77
2022/05/26 00:23:44;;;;;;;0.65;0.65;;;;;;;;;;7386219;19;20010;-78
2022/05/26 00:26:10;;;;;;;0.50;0.50;;;;;;;;;;7387630;19;20005;-77
2022/05/26 00:28:35;;;;;;;0.95;0.85;;;;;;;;;;7385604;19;20006;-77
2022/05/26 00:31:00;;;;;;;1.55;0.93;;;;;;;;;;7386515;19;20529;-77
2022/05/26 00:33:26;;;;;;;4.05;1.75;;;;;;;;;;7384113;19;20479;-78
2022/05/26 00:35:51;;;;;;;1.67;1.42;;;;;;;;;;7387068;19;20019;-78
2022/05/26 00:38:17;;;;;;;1.33;0.98;;;;;;;;;;7384238;19;20447;-77
2022/05/26 00:40:44;;;;;;;4.45;1.38;;;;;;;;;;7384734;19;20027;-77
2022/05/26 00:43:11;;;;;;;1.08;0.98;;;;;;;;;;7387675;19;20018;-77
2022/05/26 00:45:43;;;;;;;1.02;0.93;;;;;;;;;;7382763;19;20017;-77
2022/05/26 00:48:16;;;;;;;1.30;0.95;;;;;;;;;;7393062;19;20045;-77
2022/05/26 00:50:47;;;;;;;1.90;1.00;;;;;;;;;;7393730;19;20014;-77
2022/05/26 00:53:18;;;;;;;0.90;0.82;;;;;;;;;;7390576;19;20014;-77
2022/05/26 00:55:50;;;;;;;1.17;0.60;;;;;;;;;;7391740;19;20484;-77
2022/05/26 00:58:24;;;;;;;1.38;0.90;;;;;;;;;;7393433;19;20021;-79
2022/05/26 01:00:50;;;;;;;2.83;1.00;;;;;;;;;;7388826;19;20030;-77
2022/05/26 01:03:25;;;;;;;2.53;0.80;;;;;;;;;;7394770;19;20010;-77
2022/05/26 01:05:54;;;;;;;;;;;;;;;;;;7388319;19;20014;-77
2022/05/26 01:08:36;;;;;;;0.75;0.75;;;;;;;;;;7394536;19;19951;-77
2022/05/26 01:11:01;;;;;;;4.82;1.00;;;;;;;;;;7391352;19;20007;-77
2022/05/26 01:13:30;;;;;;;1.38;1.00;;;;;;;;;;7389614;19;20002;-77
2022/05/26 01:16:08;;;;;;;0.70;0.70;;;;;;;;;;7388209;19;20011;-77
2022/05/26 01:18:42;;;;;;;1.35;0.90;;;;;;;;;;7393286;19;20353;-77
2022/05/26 01:21:35;;;;;;;0.80;0.75;;;;;;;;;;7393758;19;20007;-77
2022/05/26 01:24:45;;;;;;;0.80;0.80;;;;;;;;;;7392554;19;20423;-77
2022/05/26 01:27:22;;;;;;;0.60;0.60;;;;;;;;;;7389352;19;20734;-76
2022/05/26 01:30:07;;;;;;;1.95;0.93;;;;;;;;;;7390790;19;20168;-77
2022/05/26 01:33:07;;;;;;;3.75;1.15;;;;;;;;;;7392231;19;20010;-77
2022/05/26 01:35:49;;;;;;;1.60;1.10;;;;;;;;;;7389364;19;20007;-77
2022/05/26 01:38:38;;;;;;;1.80;1.20;;;;;;;;;;7392988;19;20006;-77
2022/05/26 01:41:10;;;;;;;1.05;0.90;;;;;;;;;;7392492;19;20463;-77
2022/05/26 01:43:48;;;;;;;1.77;0.90;;;;;;;;;;7390165;19;20006;-77
2022/05/26 01:46:31;;;;;;;3.55;1.20;;;;;;;;;;7388335;19;20014;-78
2022/05/26 01:49:02;;;;;;;1.20;1.10;;;;;;;;;;7389481;19;20022;-77
2022/05/26 01:51:40;;;;;;;4.57;1.20;;;;;;;;;;7392862;19;20003;-77
2022/05/26 01:54:18;;;;;;;2.35;1.00;;;;;;;;;;7390861;19;20019;-76
2022/05/26 01:57:00;;;;;;;0.77;0.77;;;;;;;;;;7392333;19;20435;-77
2022/05/26 01:59:50;;;;;;;5.10;3.10;;;;;;;;;;7390205;19;20070;-77
2022/05/26 02:02:22;;;;;;;1.40;1.30;;;;;;;;;;7389915;19;20458;-77
2022/05/26 02:04:53;;;;;;;1.80;1.30;;;;;;;;;;7385041;19;20011;-76
2022/05/26 02:07:26;;;;;;;1.98;1.10;;;;;;;;;;7391707;19;20009;-77
2022/05/26 02:09:55;;;;;;;1.48;1.33;;;;;;;;;;7391552;19;20122;-77
2022/05/26 02:12:30;;;;;;;3.88;0.95;;;;;;;;;;7390869;19;20023;-77
2022/05/26 02:15:17;;;;;;;1.00;0.80;;;;;;;;;;7384579;19;20329;-77
2022/05/26 02:17:47;;;;;;;0.93;0.93;;;;;;;;;;7386898;19;20059;-77
2022/05/26 02:20:19;;;;;;;2.65;1.13;;;;;;;;;;7391342;19;20007;-77
2022/05/26 02:22:58;;;;;;;1.23;1.13;;;;;;;;;;7390429;19;20451;-77
2022/05/26 02:25:25;;;;;;;1.42;1.00;;;;;;;;;;7388623;19;20014;-76
2022/05/26 02:27:53;;;;;;;1.20;1.10;;;;;;;;;;7387707;19;20030;-77
2022/05/26 02:30:21;;;;;;;3.15;1.10;;;;;;;;;;7388323;19;20003;-77
2022/05/26 02:32:50;;;;;;;1.42;0.98;;;;;;;;;;7386168;19;20021;-77
2022/05/26 02:35:28;;;;;;;1.42;1.10;;;;;;;;;;7388618;19;20534;-76
2022/05/26 02:37:58;;;;;;;1.40;1.20;;;;;;;;;;7388574;19;20018;-77
2022/05/26 02:40:24;;;;;;;1.40;1.10;;;;;;;;;;7389001;19;20097;-77
2022/05/26 02:42:57;;;;;;;1.50;0.95;;;;;;;;;;7390402;19;20040;-77
2022/05/26 02:45:35;;;;;;;1.30;1.00;;;;;;;;;;7387355;19;20114;-77
2022/05/26 02:48:04;;;;;;;2.28;0.93;;;;;;;;;;7390217;19;20006;-77
2022/05/26 02:50:43;;;;;;;1.60;0.95;;;;;;;;;;7387809;19;20114;-77
2022/05/26 02:53:22;;;;;;;1.13;1.02;;;;;;;;;;7390668;19;20006;-77
2022/05/26 02:56:25;;;;;;;1.90;1.15;;;;;;;;;;7388102;19;20064;-77
2022/05/26 02:58:57;;;;;;;1.13;0.95;;;;;;;;;;7388245;19;20011;-77
2022/05/26 03:01:39;;;;;;;2.25;1.30;;;;;;;;;;7389207;19;20048;-76
2022/05/26 03:04:17;;;;;;;4.53;1.30;;;;;;;;;;7390007;19;20011;-77
2022/05/26 03:06:49;;;;;;;1.20;1.10;;;;;;;;;;7387261;19;20121;-76
2022/05/26 03:09:15;;;;;;;1.08;0.98;;;;;;;;;;7387005;19;20078;-77
2022/05/26 03:11:50;;;;;;;1.23;1.08;;;;;;;;;;7389123;19;20479;-77
2022/05/26 03:14:16;;;;;;;1.40;1.30;;;;;;;;;;7385754;19;20011;-76
2022/05/26 03:16:42;;;;;;;1.40;0.75;;;;;;;;;;7388046;19;20460;-76
2022/05/26 03:19:08;;;;;;;1.65;1.10;;;;;;;;;;7387083;19;20433;-76
2022/05/26 03:21:34;;;;;;;1.65;1.05;;;;;;;;;;7388834;19;19999;-76
2022/05/26 03:24:00;;;;;;;1.77;1.08;;;;;;;;;;7382578;19;20010;-75
2022/05/26 03:26:25;;;;;;;1.10;1.00;;;;;;;;;;7386795;19;19995;-76
2022/05/26 03:28:50;;;;;;;1.40;1.30;;;;;;;;;;7388056;19;20047;-76
2022/05/26 03:31:16;;;;;;;4.70;1.13;;;;;;;;;;7388069;19;20002;-76
2022/05/26 03:41:53;;;;;;;2.60;1.20;;;;;;;;;;7392795;19;20030;-77
2022/05/26 03:44:19;;;;;;;6.35;1.33;;;;;;;;;;7388507;19;20077;-76
2022/05/26 03:46:44;;;;;;;1.30;1.10;;;;;;;;;;7389971;19;20007;-76
2022/05/26 03:49:10;;;;;;;0.88;0.80;;;;;;;;;;7389112;19;20032;-76
2022/05/26 03:51:35;;;;;;;6.15;1.20;;;;;;;;;;7386688;19;20015;-78
2022/05/26 03:54:00;;;;;;;1.52;1.23;;;;;;;;;;7384191;19;20428;-78
2022/05/26 03:56:26;;;;;;;1.73;1.50;;;;;;;;;;7390796;19;20504;-78
2022/05/26 03:58:51;;;;;;;2.67;1.83;;;;;;;;;;7389216;19;20022;-77
2022/05/26 04:01:16;;;;;;;1.58;1.45;;;;;;;;;;7385288;19;20062;-78
2022/05/26 04:03:41;;;;;;;2.50;1.67;;;;;;;;;;7389279;19;20600;-78
2022/05/26 04:06:07;;;;;;;1.50;1.40;;;;;;;;;;7383734;19;20026;-76
2022/05/26 04:08:32;;;;;;;1.80;1.40;;;;;;;;;;7383279;19;20039;-76
2022/05/26 04:10:58;;;;;;;3.42;1.40;;;;;;;;;;7383859;19;19998;-77
2022/05/26 04:13:23;;;;;;;3.83;1.20;;;;;;;;;;7381228;19;20740;-77
2022/05/26 04:15:48;;;;;;;3.28;1.40;;;;;;;;;;7380175;19;20471;-78
2022/05/26 04:18:14;;;;;;;1.45;1.10;;;;;;;;;;7385233;19;19999;-77
2022/05/26 04:20:39;;;;;;;4.72;2.33;;;;;;;;;;7390991;19;20466;-77
2022/05/26 04:23:04;;;;;;;4.55;1.38;;;;;;;;;;7395011;19;20475;-77
2022/05/26 04:25:30;;;;;;;1.30;1.20;;;;;;;;;;7390094;19;20408;-77
2022/05/26 04:27:55;;;;;;;1.60;1.05;;;;;;;;;;7394088;19;20003;-78
2022/05/26 04:30:22;;;;;;;1.33;1.10;;;;;;;;;;7391763;19;20013;-76
2022/05/26 04:32:48;;;;;;;1.60;1.00;;;;;;;;;;7391738;19;20010;-77
2022/05/26 04:35:14;;;;;;;1.77;1.13;;;;;;;;;;7388869;19;20007;-77
2022/05/26 04:37:39;;;;;;;3.78;1.45;;;;;;;;;;7395472;19;20018;-77
2022/05/26 04:40:07;;;;;;;1.10;0.98;;;;;;;;;;7393212;19;20022;-77
2022/05/26 04:42:33;;;;;;;4.10;0.90;;;;;;;;;;7394871;19;20033;-77
2022/05/26 04:44:59;;;;;;;2.42;1.10;;;;;;;;;;7389076;19;20015;-77
2022/05/26 04:47:24;;;;;;;0.88;0.88;;;;;;;;;;7390157;19;20478;-78
2022/05/26 04:49:50;;;;;;;1.17;0.90;;;;;;;;;;7387216;19;20015;-77
2022/05/26 04:52:18;;;;;;;2.28;1.20;;;;;;;;;;7393405;19;20010;-77
2022/05/26 04:54:44;;;;;;;1.30;1.13;;;;;;;;;;7389864;19;20018;-78
2022/05/26 04:57:11;;;;;;;1.05;0.90;;;;;;;;;;7391195;19;20015;-78
2022/05/26 04:59:37;;;;;;;2.15;1.00;;;;;;;;;;7394235;19;20033;-77
2022/05/26 05:02:04;;;;;;;6.40;1.52;;;;;;;;;;7390868;19;20157;-77
2022/05/26 05:04:29;;;;;;;2.50;1.30;;;;;;;;;;7389789;19;20007;-77
2022/05/26 05:06:55;;;;;;;2.40;1.20;;;;;;;;;;7393341;19;20482;-77
2022/05/26 05:09:24;;;;;;;2.38;1.15;;;;;;;;;;7392467;19;20013;-78
2022/05/26 05:11:50;;;;;;;1.30;1.05;;;;;;;;;;7393812;19;20039;-77
2022/05/26 05:14:16;;;;;;;1.40;1.13;;;;;;;;;;7385330;19;20007;-77
2022/05/26 05:16:43;;;;;;;1.20;1.08;;;;;;;;;;7392456;19;20015;-76
2022/05/26 05:19:10;;;;;;;1.65;1.20;;;;;;;;;;7391193;19;20074;-78
2022/05/26 05:21:43;;;;;;;1.15;0.98;;;;;;;;;;7392116;19;20376;-78
2022/05/26 05:24:16;;;;;;;4.85;2.88;;;;;;;;;;7391368;19;20007;-78
2022/05/26 05:26:45;;;;;;;4.15;1.17;;;;;;;;;;7389599;19;20018;-79
2022/05/26 05:29:14;;;;;;;1.27;0.95;;;;;;;;;;7391583;19;20006;-77
2022/05/26 05:31:45;;;;;;;2.83;1.20;;;;;;;;;;7389236;19;20015;-78
2022/05/26 05:34:18;;;;;;;1.40;1.15;;;;;;;;;;7391666;19;20010;-77
2022/05/26 05:36:44;;;;;;;1.70;0.90;;;;;;;;;;7392197;19;20014;-78
2022/05/26 05:39:09;;;;;;;1.00;0.90;;;;;;;;;;7390649;19;20006;-77
2022/05/26 05:41:35;;;;;;;2.17;1.00;;;;;;;;;;7390763;19;20014;-76
2022/05/26 05:44:03;;;;;;;0.90;0.80;;;;;;;;;;7392922;19;20003;-76
2022/05/26 05:46:53;;;;;;;2.78;1.13;;;;;;;;;;7391959;19;20006;-77
2022/05/26 05:49:13;;;;;;;1.85;0.90;;;;;;;;;;7387446;19;20011;-76
2022/05/26 05:51:39;;;;;;;1.20;1.10;;;;;;;;;;7392507;19;20029;-76
2022/05/26 05:54:04;;;;;;;1.85;0.95;;;;;;;;;;7390074;19;20083;-77
2022/05/26 05:56:29;;;;;;;1.90;0.88;;;;;;;;;;7389566;19;20023;-77
2022/05/26 05:58:55;;;;;;;1.30;0.80;;;;;;;;;;7383844;19;20014;-76
2022/05/26 06:01:20;;;;;;;1.65;1.05;;;;;;;;;;7390545;19;20006;-77
2022/05/26 06:03:49;;;;;;;2.33;1.35;;;;;;;;;;7389626;19;20029;-77
2022/05/26 06:06:14;;;;;;;1.77;1.08;;;;;;;;;;7392855;19;20006;-77
2022/05/26 06:08:39;;;;;;;1.40;1.00;;;;;;;;;;7390839;19;20037;-77
2022/05/26 06:11:05;;;;;;;1.33;1.10;;;;;;;;;;7391611;19;20034;-76
2022/05/26 06:13:30;;;;;;;1.67;1.00;;;;;;;;;;7390741;19;20018;-77
2022/05/26 06:15:56;;;;;;;2.22;0.85;;;;;;;;;;7386781;19;20007;-76
2022/05/26 06:18:21;;;;;;;1.02;0.88;;;;;;;;;;7389932;19;20011;-77
2022/05/26 06:20:46;;;;;;;2.88;1.05;;;;;;;;;;7392039;19;20483;-77
2022/05/26 06:23:12;;;;;;;1.67;0.90;;;;;;;;;;7390403;19;20014;-78
2022/05/26 06:25:38;;;;;;;2.42;1.00;;;;;;;;;;7387896;19;20015;-77
2022/05/26 06:30:47;;;;;;;1.63;0.90;;;;;;;;;;7390170;19;20501;-77
2022/05/26 06:38:43;;;;;;;2.47;0.70;;;;;;;;;;7392678;19;20017;-77
2022/05/26 06:43:55;;;;;;;1.58;0.82;;;;;;;;;;7388453;19;20612;-77
2022/05/26 06:46:21;;;;;;;1.27;0.85;;;;;;;;;;7388092;19;20015;-77
2022/05/26 06:48:47;;;;;;;1.58;0.80;;;;;;;;;;7387761;19;20014;-78
2022/05/26 06:51:12;;;;;;;1.85;0.60;;;;;;;;;;7388156;19;20027;-77
2022/05/26 06:53:38;;;;;;;1.08;0.70;;;;;;;;;;7388841;19;20439;-77
2022/05/26 06:56:05;;;;;;;0.68;0.68;;;;;;;;;;7391433;19;20031;-77
2022/05/26 06:58:31;;;;;;;1.45;0.80;;;;;;;;;;7387726;19;20003;-77
2022/05/26 07:00:56;;;;;;;3.53;0.70;;;;;;;;;;7387681;19;20011;-77
2022/05/26 07:03:22;;;;;;;1.85;0.60;;;;;;;;;;7389792;19;20006;-77
2022/05/26 07:05:48;;;;;;;0.95;0.75;;;;;;;;;;7387358;19;20037;-77
2022/05/26 07:08:13;;;;;;;1.02;0.80;;;;;;;;;;7390642;19;20007;-77
2022/05/26 07:10:39;;;;;;;1.45;0.65;;;;;;;;;;7386729;19;20033;-77
2022/05/26 07:13:04;;;;;;;0.55;0.50;;;;;;;;;;7376330;19;20006;-77
2022/05/26 07:15:33;;;;;;;1.63;0.70;;;;;;;;;;7385180;19;20018;-76
2022/05/26 07:17:58;;;;;;;0.65;0.52;;;;;;;;;;7387256;19;20012;-78
2022/05/26 07:20:23;;;;;;;0.90;0.57;;;;;;;;;;7388933;19;20396;-77
2022/05/26 07:22:48;;;;;;;0.70;0.47;;;;;;;;;;7387779;19;20010;-77
2022/05/26 07:25:14;;;;;;;2.28;0.60;;;;;;;;;;7387030;19;20074;-78
2022/05/26 07:27:39;;;;;;;1.33;0.50;;;;;;;;;;7388479;19;20011;-78
2022/05/26 07:30:05;;;;;;;0.35;0.35;;;;;;;;;;7388575;19;20040;-77
2022/05/26 07:32:31;;;;;;;0.60;0.30;;;;;;;;;;7386176;19;20034;-77
2022/05/26 07:34:56;;;;;;;0.57;0.57;;;;;;;;;;7383604;19;20018;-78
2022/05/26 07:42:50;;;;;;;1.88;0.35;;;;;;;;;;7393374;19;20730;-80
2022/05/26 07:45:15;;;;;;;0.65;0.40;;;;;;;;;;7388752;19;20011;-81
2022/05/26 07:47:41;;;;;;;2.92;0.38;;;;;;;;;;7389764;19;20035;-79
2022/05/26 07:50:09;;;;;;;1.98;0.30;;;;;;;;;;7392395;19;20017;-80
2022/05/26 07:52:35;;;;;;;1.90;0.47;;;;;;;;;;7395065;19;20017;-80
2022/05/26 07:55:00;;;;;;;0.32;0.25;;;;;;;;;;7391599;19;20002;-80
2022/05/26 07:57:27;;;;;;;4.47;0.40;;;;;;;;;;7391744;19;20554;-84
2022/05/26 07:59:54;;;;;;;0.85;0.32;;;;;;;;;;7394749;19;20475;-78
2022/05/26 08:02:19;;;;;;;0.43;0.30;;;;;;;;;;7394312;19;20007;-80
2022/05/26 08:04:45;;;;;;;0.73;0.30;;;;;;;;;;7389567;19;20018;-79
2022/05/26 08:07:11;;;;;;;0.95;0.40;;;;;;;;;;7394725;19;20007;-79
2022/05/26 08:09:40;;;;;;;6.03;0.73;;;;;;;;;;7394526;19;20106;-80
2022/05/26 08:12:08;;;;;;;0.45;0.45;;;;;;;;;;7390014;19;20431;-77
2022/05/26 08:14:34;;;;;;;0.10;0.10;;;;;;;;;;7389892;19;20023;-77
2022/05/26 08:17:01;;;;;;;0.55;0.50;;;;;;;;;;7390085;19;20010;-78
2022/05/26 08:19:26;;;;;;;3.80;0.40;;;;;;;;;;7392270;19;20026;-78
2022/05/26 08:21:52;;;;;;;2.20;0.52;;;;;;;;;;7388892;19;20014;-79
2022/05/26 08:24:19;;;;;;;0.75;0.30;;;;;;;;;;7393152;19;19994;-79
2022/05/26 08:26:45;;;;;;;1.13;0.40;;;;;;;;;;7392704;19;20014;-79
2022/05/26 08:29:10;;;;;;;2.40;0.40;;;;;;;;;;7411507;19;20014;-79
2022/05/26 08:31:35;;;;;;;1.13;0.30;;;;;;;;;;7413514;19;20370;-79
2022/05/26 08:34:01;;;;;;;0.30;0.30;;;;;;;;;;7416550;19;20002;-78
2022/05/26 08:36:28;;;;;;;1.50;0.35;;;;;;;;;;7419463;19;20007;-77
2022/05/26 08:38:53;;;;;;;1.65;0.35;;;;;;;;;;7396914;19;20010;-79
2022/05/26 08:41:33;;;;;;;1.55;0.30;;;;;;;;;;7386899;19;20026;-79
2022/05/26 08:44:08;;;;;;;1.20;0.55;;;;;;;;;;7390546;19;20003;-79
2022/05/26 08:46:45;;;;;;;0.38;0.32;;;;;;;;;;7389937;19;20011;-79
2022/05/26 08:49:32;;;;;;;1.90;0.30;;;;;;;;;;7391504;19;20002;-79
2022/05/26 08:52:25;;;;;;;0.55;0.30;;;;;;;;;;7388340;19;20026;-79
2022/05/26 08:55:01;;;;;;;3.92;0.50;;;;;;;;;;7388920;19;20903;-79
2022/05/26 08:57:55;;;;;;;1.70;0.40;;;;;;;;;;7390502;19;20029;-79
2022/05/26 09:00:23;;;;;;;0.75;0.50;;;;;;;;;;7386365;19;20040;-79
2022/05/26 09:02:54;;;;;;;0.75;0.40;;;;;;;;;;7388044;19;20014;-79
2022/05/26 09:05:21;;;;;;;2.97;0.20;;;;;;;;;;7383604;19;20011;-80
2022/05/26 09:13:43;;;;;;;0.28;0.13;;;;;;;;;;7396283;19;21022;-80
2022/05/26 09:16:10;;;;;;;0.68;0.40;;;;;;;;;;7391469;19;20652;-81
2022/05/26 09:18:36;;;;;;;0.73;0.40;;;;;;;;;;7396392;19;20114;-78
2022/05/26 09:21:13;;;;;;;0.45;0.30;;;;;;;;;;7396289;19;20006;-80
2022/05/26 09:23:42;;;;;;;1.85;0.40;;;;;;;;;;7396480;19;20014;-82
2022/05/26 09:26:11;;;;;;;0.52;0.40;;;;;;;;;;7395799;19;20011;-80
2022/05/26 09:28:43;;;;;;;0.45;0.30;;;;;;;;;;7394586;19;20015;-80
2022/05/26 09:31:31;;;;;;;1.33;0.50;;;;;;;;;;7398060;19;19999;-79
2022/05/26 09:34:03;;;;;;;0.17;0.17;;;;;;;;;;7397368;19;20087;-80
2022/05/26 09:36:32;;;;;;;0.47;0.40;;;;;;;;;;7397017;19;20338;-80
2022/05/26 09:38:58;;;;;;;3.63;0.40;;;;;;;;;;7396717;19;20011;-80
2022/05/26 09:41:23;;;;;;;1.13;0.40;;;;;;;;;;7397887;19;20010;-82
2022/05/26 09:43:53;;;;;;;2.05;0.45;;;;;;;;;;7395016;19;20546;-81
2022/05/26 09:46:23;;;;;;;0.30;0.20;;;;;;;;;;7397367;19;20007;-80
2022/05/26 09:48:52;;;;;;;0.40;0.38;;;;;;;;;;7391455;19;20010;-79
2022/05/26 09:51:25;;;;;;;0.30;0.20;;;;;;;;;;7395106;19;20128;-84
2022/05/26 09:53:53;;;;;;;0.70;0.47;;;;;;;;;;7391794;19;20021;-82
2022/05/26 09:56:31;;;;;;;1.50;0.43;;;;;;;;;;7393177;19;20014;-82
2022/05/26 09:58:57;;;;;;;0.40;0.40;;;;;;;;;;7393081;19;20431;-82
2022/05/26 10:01:23;;;;;;;1.67;0.38;;;;;;;;;;7393087;19;20982;-83
2022/05/26 10:04:13;;;;;;;2.08;0.30;;;;;;;;;;7393703;19;20485;-82
2022/05/26 10:06:41;;;;;;;1.10;0.43;;;;;;;;;;7396255;19;20353;-82
2022/05/26 10:09:47;;;;;;;1.55;0.30;;;;;;;;;;7397969;19;20034;-81
2022/05/26 10:12:29;;;;;;;1.02;0.20;;;;;;;;;;7396268;19;20010;-82
2022/05/26 10:15:12;;;;;;;1.33;0.40;;;;;;;;;;7391553;19;20010;-81
2022/05/26 10:17:58;;;;;;;0.75;0.28;;;;;;;;;;7395452;19;20069;-81
2022/05/26 10:20:41;;;;;;;0.98;0.50;;;;;;;;;;7394116;19;20006;-82
2022/05/26 10:23:19;;;;;;;2.10;0.30;;;;;;;;;;7395572;19;20014;-82
2022/05/26 10:26:06;;;;;;;0.95;0.40;;;;;;;;;;7391045;19;20026;-82
2022/05/26 10:29:02;;;;;;;0.55;0.40;;;;;;;;;;7394802;19;20017;-82
2022/05/26 10:31:53;;;;;;;0.50;0.50;;;;;;;;;;7393923;19;20446;-82
2022/05/26 10:34:40;;;;;;;0.28;0.20;;;;;;;;;;7391775;19;20810;-81
2022/05/26 10:37:11;;;;;;;1.10;0.60;;;;;;;;;;7397576;19;20034;-82
2022/05/26 10:39:50;;;;;;;0.98;0.40;;;;;;;;;;7396043;19;19995;-82
2022/05/26 10:42:24;;;;;;;2.28;0.40;;;;;;;;;;7393225;19;20305;-82
2022/05/26 10:44:58;;;;;;;1.08;0.25;;;;;;;;;;7392238;19;20031;-81
2022/05/26 10:47:41;;;;;;;1.38;0.68;;;;;;;;;;7390254;19;20010;-81
2022/05/26 10:50:16;;;;;;;0.28;0.28;;;;;;;;;;7395286;19;20009;-82
2022/05/26 10:52:46;;;;;;;;;;;;;;;;;;7396211;19;20006;-83
2022/05/26 10:55:17;;;;;;;2.35;1.50;;;;;;;;;;7391843;19;20253;-83
2022/05/26 10:58:01;;;;;;;3.13;1.27;;;;;;;;;;7395108;19;20170;-81
2022/05/26 11:00:29;;;;;;;1.70;0.70;;;;;;;;;;7391912;19;20031;-83
2022/05/26 11:03:03;;;;;;;0.40;0.25;;;;;;;;;;7391440;19;20090;-82
2022/05/26 11:05:36;;;;;;;2.28;0.40;;;;;;;;;;7390192;19;20029;-82
2022/05/26 11:08:22;;;;;;;0.75;0.30;;;;;;;;;;7394385;19;20022;-83
2022/05/26 11:10:59;;;;;;;0.82;0.32;;;;;;;;;;7392970;19;20014;-81
2022/05/26 11:13:33;;;;;;;1.08;0.30;;;;;;;;;;7392828;19;20099;-82
2022/05/26 11:19:00;;;;;;;0.57;0.40;;;;;;;;;;7394490;19;20431;-82
2022/05/26 11:21:25;;;;;;;0.73;0.40;;;;;;;;;;7390910;19;20347;-82
2022/05/26 11:23:51;;;;;;;0.57;0.17;;;;;;;;;;7392462;19;20461;-82
2022/05/26 11:26:31;;;;;;;1.67;0.38;;;;;;;;;;7390989;19;20006;-82
2022/05/26 11:29:00;;;;;;;2.70;0.57;;;;;;;;;;7392612;19;20033;-83
2022/05/26 11:37:41;;;;;;;1.95;0.45;;;;;;;;;;7393035;19;20026;-82
2022/05/26 11:40:11;;;;;;;1.63;0.40;;;;;;;;;;7390888;19;20029;-82
2022/05/26 11:42:50;;;;;;;1.05;0.43;;;;;;;;;;7391666;19;20022;-83
2022/05/26 11:45:31;;;;;;;0.82;0.40;;;;;;;;;;7388049;19;20120;-83
2022/05/26 11:48:04;;;;;;;1.13;0.30;;;;;;;;;;7392319;19;20003;-83
2022/05/26 11:50:54;;;;;;;0.38;0.20;;;;;;;;;;7391642;19;20021;-82
2022/05/26 11:53:32;;;;;;;2.17;0.30;;;;;;;;;;7390686;19;20007;-82
2022/05/26 11:56:06;;;;;;;0.30;0.30;;;;;;;;;;7388836;19;20114;-83
2022/05/26 11:58:33;;;;;;;1.13;0.50;;;;;;;;;;7390106;19;20014;-82
2022/05/26 12:01:34;;;;;;;0.45;0.45;;;;;;;;;;7391338;19;20010;-83
2022/05/26 12:04:22;;;;;;;1.45;0.85;;;;;;;;;;7391083;19;20002;-83
2022/05/26 12:07:05;;;;;;;0.93;0.50;;;;;;;;;;7391205;19;20011;-82
2022/05/26 12:09:37;;;;;;;1.38;0.40;;;;;;;;;;7390406;19;20679;-82
2022/05/26 12:12:17;;;;;;;2.10;0.47;;;;;;;;;;7390113;19;20070;-83
2022/05/26 12:14:54;;;;;;;1.42;0.50;;;;;;;;;;7388734;19;20027;-83
2022/05/26 12:17:30;;;;;;;0.85;0.30;;;;;;;;;;7390863;19;20081;-83
2022/05/26 12:20:05;;;;;;;2.72;0.40;;;;;;;;;;7391694;19;20002;-84
2022/05/26 12:22:40;;;;;;;1.88;0.35;;;;;;;;;;7390708;19;20025;-84
2022/05/26 12:25:27;;;;;;;1.65;0.38;;;;;;;;;;7389977;19;20014;-83
2022/05/26 12:27:53;;;;;;;0.82;0.30;;;;;;;;;;7390229;19;20013;-83
2022/05/26 12:30:39;;;;;;;0.30;0.30;;;;;;;;;;7391007;19;20002;-83
2022/05/26 12:33:19;;;;;;;1.85;0.35;;;;;;;;;;7391232;19;20019;-83
2022/05/26 12:36:12;;;;;;;0.40;0.32;;;;;;;;;;7388025;19;20007;-82
2022/05/26 12:39:05;;;;;;;0.82;0.40;;;;;;;;;;7390132;19;20018;-83
2022/05/26 12:42:15;;;;;;;0.85;0.30;;;;;;;;;;7390395;19;20462;-83
2022/05/26 12:45:05;;;;;;;1.05;0.30;;;;;;;;;;7396813;19;20336;-83
2022/05/26 12:47:34;;;;;;;1.08;0.32;;;;;;;;;;7399018;19;20010;-82
2022/05/26 12:50:16;;;;;;;0.95;0.30;;;;;;;;;;7397663;19;20006;-83
2022/05/26 12:52:49;;;;;;;0.82;0.40;;;;;;;;;;7397556;19;20014;-83
2022/05/26 12:55:26;;;;;;;1.42;0.50;;;;;;;;;;7394217;19;20006;-82
2022/05/26 12:57:54;;;;;;;1.35;0.40;;;;;;;;;;7396451;19;20018;-82
2022/05/26 13:00:34;;;;;;;1.30;0.30;;;;;;;;;;7394651;19;20011;-82
2022/05/26 13:03:13;;;;;;;0.57;0.35;;;;;;;;;;7395072;19;20530;-83
2022/05/26 13:05:44;;;;;;;0.47;0.30;;;;;;;;;;7395691;19;20010;-82
2022/05/26 13:08:18;;;;;;;1.80;0.45;;;;;;;;;;7397063;19;20013;-82
2022/05/26 13:10:44;;;;;;;2.47;0.40;;;;;;;;;;7396307;19;20498;-82
2022/05/26 13:13:22;;;;;;;1.55;0.30;;;;;;;;;;7396729;19;20015;-83
2022/05/26 13:15:48;;;;;;;1.95;0.25;;;;;;;;;;7392515;19;20018;-82
2022/05/26 13:18:19;;;;;;;2.97;0.40;;;;;;;;;;7397354;19;20304;-83
2022/05/26 13:20:44;;;;;;;1.95;0.40;;;;;;;;;;7396054;19;20002;-83
2022/05/26 13:23:09;;;;;;;1.02;0.50;;;;;;;;;;7396154;19;20066;-83
2022/05/26 13:25:35;;;;;;;3.42;0.50;;;;;;;;;;7394074;19;20011;-83
2022/05/26 13:28:08;;;;;;;0.30;0.30;;;;;;;;;;7399166;19;20032;-82
2022/05/26 13:33:24;;;;;;;0.40;0.40;;;;;;;;;;7397914;19;20044;-82
2022/05/26 13:35:56;;;;;;;0.30;0.17;;;;;;;;;;7396229;19;20070;-82
2022/05/26 13:38:37;;;;;;;1.40;0.45;;;;;;;;;;7399297;19;20070;-83
2022/05/26 13:41:05;;;;;;;1.48;0.30;;;;;;;;;;7397954;19;20459;-83
2022/05/26 13:43:34;;;;;;;0.63;0.50;;;;;;;;;;7399192;19;19998;-82
2022/05/26 13:46:00;;;;;;;0.70;0.30;;;;;;;;;;7396783;19;20022;-83
2022/05/26 13:48:34;;;;;;;0.47;0.40;;;;;;;;;;7398696;19;20006;-83
2022/05/26 13:51:18;;;;;;;1.52;0.40;;;;;;;;;;7398879;19;20010;-82
2022/05/26 13:54:11;;;;;;;0.65;0.30;;;;;;;;;;7396597;19;20103;-83
2022/05/26 13:56:37;;;;;;;0.63;0.52;;;;;;;;;;7397079;19;20025;-83
2022/05/26 13:59:09;;;;;;;0.80;0.50;;;;;;;;;;7397713;19;20865;-83
2022/05/26 14:01:40;;;;;;;1.38;0.40;;;;;;;;;;7395209;19;20017;-83
2022/05/26 14:04:18;;;;;;;1.02;0.30;;;;;;;;;;7394612;19;20010;-83
2022/05/26 14:06:43;;;;;;;1.00;0.45;;;;;;;;;;7397025;19;20039;-83
2022/05/26 14:09:35;;;;;;;0.40;0.40;;;;;;;;;;7398824;19;20461;-83
2022/05/26 14:12:07;;;;;;;0.80;0.28;;;;;;;;;;7396988;19;20076;-83
2022/05/26 14:14:44;;;;;;;1.55;0.30;;;;;;;;;;7396778;19;20352;-83
2022/05/26 14:17:34;;;;;;;0.28;0.28;;;;;;;;;;7395523;19;20011;-83
2022/05/26 14:20:03;;;;;;;1.02;0.50;;;;;;;;;;7398021;19;20432;-83
2022/05/26 14:22:30;;;;;;;0.38;0.32;;;;;;;;;;7397764;19;20019;-83
2022/05/26 14:24:58;;;;;;;0.40;0.40;;;;;;;;;;7395646;19;20006;-83
2022/05/26 14:27:50;;;;;;;0.77;0.28;;;;;;;;;;7397103;19;20070;-83
2022/05/26 14:30:35;;;;;;;1.05;0.30;;;;;;;;;;7397074;19;20582;-83
2022/05/26 14:33:18;;;;;;;0.30;0.20;;;;;;;;;;7395912;19;20011;-83
2022/05/26 14:35:44;;;;;;;0.50;0.40;;;;;;;;;;7394259;19;20010;-83
2022/05/26 14:38:09;;;;;;;0.30;0.30;;;;;;;;;;7396996;19;20102;-83
2022/05/26 14:40:34;;;;;;;1.85;0.30;;;;;;;;;;7394929;19;20475;-83
2022/05/26 14:43:00;;;;;;;0.63;0.22;;;;;;;;;;7396745;19;20014;-83
2022/05/26 14:45:25;;;;;;;1.70;0.50;;;;;;;;;;7393128;19;19994;-83
2022/05/26 14:47:50;;;;;;;0.98;0.43;;;;;;;;;;7394969;19;20022;-84
2022/05/26 14:50:16;;;;;;;0.90;0.30;;;;;;;;;;7396454;19;20463;-83
2022/05/26 14:52:46;;;;;;;0.68;0.25;;;;;;;;;;7396960;19;20002;-83
2022/05/26 14:55:28;;;;;;;6.03;0.40;;;;;;;;;;7395383;19;20344;-83
2022/05/26 14:57:58;;;;;;;0.38;0.35;;;;;;;;;;7397457;19;20006;-83
2022/05/26 15:00:27;;;;;;;1.95;0.30;;;;;;;;;;7395188;19;20006;-83
2022/05/26 15:02:53;;;;;;;0.75;0.40;;;;;;;;;;7388751;19;20013;-84
2022/05/26 15:05:18;;;;;;;0.65;0.47;;;;;;;;;;7388983;19;20017;-83
2022/05/26 15:07:45;;;;;;;0.80;0.20;;;;;;;;;;7398281;19;20042;-84
2022/05/26 15:10:13;;;;;;;2.47;0.20;;;;;;;;;;7405549;19;20031;-83
2022/05/26 15:12:39;;;;;;;2.97;0.40;;;;;;;;;;7414084;19;20013;-83
2022/05/26 15:15:06;;;;;;;1.25;0.38;;;;;;;;;;7409737;19;20039;-83
2022/05/26 15:17:32;;;;;;;0.82;0.20;;;;;;;;;;7413170;19;20011;-83
2022/05/26 15:20:01;;;;;;;0.45;0.30;;;;;;;;;;7403382;19;20131;-83
2022/05/26 15:22:31;;;;;;;3.75;0.50;;;;;;;;;;7391231;19;21358;-83
2022/05/26 15:24:57;;;;;;;0.68;0.50;;;;;;;;;;7391059;19;20443;-83
2022/05/26 15:27:25;;;;;;;0.75;0.50;;;;;;;;;;7392697;19;20026;-84
2022/05/26 15:29:50;;;;;;;2.28;1.33;;;;;;;;;;7393564;19;20166;-83
2022/05/26 15:32:48;;;;;;;1.70;0.80;;;;;;;;;;7396219;19;20007;-83
2022/05/26 15:35:19;;;;;;;1.55;0.40;;;;;;;;;;7384736;19;20025;-83
2022/05/26 15:37:46;;;;;;;2.60;1.90;;;;;;;;;;7388934;19;20170;-83
2022/05/26 15:40:20;;;;;;;2.67;1.10;;;;;;;;;;7394149;19;20062;-83
2022/05/26 15:42:46;;;;;;;0.50;0.50;;;;;;;;;;7393045;19;20105;-83
2022/05/26 15:45:12;;;;;;;2.42;0.57;;;;;;;;;;7389428;19;20007;-83
2022/05/26 15:47:37;;;;;;;0.60;0.40;;;;;;;;;;7392404;19;20027;-83
2022/05/26 15:50:18;;;;;;;0.90;0.47;;;;;;;;;;7393243;19;20003;-83
2022/05/26 15:52:44;;;;;;;0.75;0.50;;;;;;;;;;7390444;19;20050;-83